createdAt,value
2022-11-13T00:00:32.193Z,99536.73
2022-11-13T00:03:23.970Z,99535.58
2022-11-13T00:06:11.486Z,99534.60
2022-11-13T00:08:58.194Z,99535.09
2022-11-13T00:11:44.851Z,99532.74
2022-11-13T00:14:31.292Z,99532.95
2022-11-13T00:17:17.966Z,99531.48
2022-11-13T00:20:05.142Z,99532.69
2022-11-13T00:22:51.690Z,99534.22
2022-11-13T00:25:38.104Z,99532.48
2022-11-13T00:28:25.444Z,99534.05
2022-11-13T00:31:14.178Z,99534.66
2022-11-13T00:37:07.562Z,99539.33
2022-11-13T00:39:58.524Z,99542.39
2022-11-13T00:42:46.264Z,99535.50
2022-11-13T00:45:33.183Z,99534.69
2022-11-13T00:48:20.639Z,99534.84
2022-11-13T00:51:07.655Z,99534.96
2022-11-13T00:53:54.562Z,99533.09
2022-11-13T00:56:41.478Z,99529.91
2022-11-13T00:59:27.980Z,99528.52
2022-11-13T01:02:15.401Z,99527.09
2022-11-13T01:05:02.209Z,99516.14
2022-11-13T01:07:48.856Z,99517.85
2022-11-13T01:10:38.389Z,99517.09
2022-11-13T01:13:25.355Z,99511.70
2022-11-13T01:16:12.464Z,99514.35
2022-11-13T01:18:58.974Z,99517.28
2022-11-13T01:21:45.527Z,99513.06
2022-11-13T01:24:32.116Z,99511.08
2022-11-13T01:27:18.804Z,99513.84
2022-11-13T01:30:06.262Z,99507.52
2022-11-13T01:32:53.378Z,99500.11
2022-11-13T01:35:40.289Z,99496.59
2022-11-13T01:38:26.980Z,99494.63
2022-11-13T01:41:23.081Z,99499.43
2022-11-13T01:44:12.980Z,99506.98
2022-11-13T01:46:59.664Z,99506.06
2022-11-13T01:49:46.833Z,99504.61
2022-11-13T01:52:39.140Z,99502.09
2022-11-13T01:55:26.190Z,99504.33
2022-11-13T01:58:13.605Z,99494.00
2022-11-13T02:01:00.520Z,99498.19
2022-11-13T02:03:47.276Z,99500.63
2022-11-13T02:06:41.118Z,99501.70
2022-11-13T02:09:30.195Z,99502.48
2022-11-13T02:12:22.269Z,99495.58
2022-11-13T02:15:09.270Z,99490.84
2022-11-13T02:17:57.656Z,99489.77
2022-11-13T02:20:44.380Z,99490.40
2022-11-13T02:23:36.679Z,99493.23
2022-11-13T02:26:25.285Z,99492.53
2022-11-13T02:29:13.053Z,99493.16
2022-11-13T02:31:59.589Z,99498.48
2022-11-13T02:34:45.887Z,99501.90
2022-11-13T02:37:32.648Z,99501.68
2022-11-13T02:40:19.025Z,99503.46
2022-11-13T02:43:05.806Z,99494.67
2022-11-13T02:45:52.635Z,99495.00
2022-11-13T02:48:38.852Z,99491.51
2022-11-13T02:51:25.991Z,99495.50
2022-11-13T02:54:16.679Z,99496.69
2022-11-13T02:57:03.804Z,99500.90
2022-11-13T02:59:50.144Z,99497.83
2022-11-13T03:02:37.383Z,99498.52
2022-11-13T03:05:24.168Z,99498.69
2022-11-13T03:08:10.979Z,99497.15
2022-11-13T03:10:57.785Z,99493.31
2022-11-13T03:13:44.601Z,99496.09
2022-11-13T03:16:31.513Z,99498.09
2022-11-13T03:19:18.935Z,99499.73
2022-11-13T03:22:05.435Z,99501.67
2022-11-13T03:24:51.835Z,99501.16
2022-11-13T03:27:38.645Z,99500.90
2022-11-13T03:30:26.544Z,99499.19
2022-11-13T03:33:13.172Z,99497.37
2022-11-13T03:35:59.892Z,99501.20
2022-11-13T03:38:46.130Z,99500.52
2022-11-13T03:41:32.971Z,99500.02
2022-11-13T03:44:20.118Z,99501.14
2022-11-13T03:47:06.564Z,99498.77
2022-11-13T03:49:52.923Z,99501.73
2022-11-13T03:52:39.753Z,99499.58
2022-11-13T03:55:26.535Z,99496.39
2022-11-13T03:58:13.613Z,99498.95
2022-11-13T04:01:00.179Z,99498.36
2022-11-13T04:03:46.652Z,99497.07
2022-11-13T04:06:33.274Z,99495.88
2022-11-13T04:09:19.972Z,99497.80
2022-11-13T04:12:06.467Z,99497.08
2022-11-13T04:14:53.174Z,99500.00
2022-11-13T04:17:40.265Z,99501.30
2022-11-13T04:20:28.031Z,99500.19
2022-11-13T04:23:16.164Z,99497.05
2022-11-13T04:26:02.596Z,99497.87
2022-11-13T04:28:49.446Z,99492.45
2022-11-13T04:31:35.875Z,99493.48
2022-11-13T04:34:22.483Z,99493.31
2022-11-13T04:37:09.152Z,99492.20
2022-11-13T04:39:55.552Z,99490.00
2022-11-13T04:42:51.083Z,99493.81
2022-11-13T04:45:38.115Z,99494.39
2022-11-13T04:48:24.569Z,99495.83
2022-11-13T04:51:11.324Z,99497.66
2022-11-13T04:53:57.876Z,99495.41
2022-11-13T04:56:44.537Z,99497.13
2022-11-13T04:59:31.045Z,99500.49
2022-11-13T05:02:18.462Z,99500.53
2022-11-13T05:05:06.025Z,99500.83
2022-11-13T05:07:52.714Z,99502.23
2022-11-13T05:10:39.226Z,99502.70
2022-11-13T05:13:25.903Z,99497.79
2022-11-13T05:16:13.371Z,99495.23
2022-11-13T05:19:00.266Z,99495.63
2022-11-13T05:21:47.009Z,99494.86
2022-11-13T05:24:33.656Z,99490.92
2022-11-13T05:27:20.558Z,99492.24
2022-11-13T05:30:07.712Z,99491.52
2022-11-13T05:32:54.234Z,99489.09
2022-11-13T05:35:40.701Z,99489.64
2022-11-13T05:38:28.481Z,99495.86
2022-11-13T05:41:16.455Z,99497.88
2022-11-13T05:44:03.041Z,99498.62
2022-11-13T05:46:49.605Z,99500.75
2022-11-13T05:49:36.373Z,99506.60
2022-11-13T05:52:22.980Z,99507.89
2022-11-13T05:55:09.789Z,99511.47
2022-11-13T05:57:58.691Z,99513.53
2022-11-13T06:00:45.697Z,99513.20
2022-11-13T06:03:32.776Z,99522.29
2022-11-13T06:06:20.636Z,99522.80
2022-11-13T06:09:07.591Z,99518.52
2022-11-13T06:11:54.136Z,99519.02
2022-11-13T06:14:41.043Z,99519.02
2022-11-13T06:17:28.153Z,99511.91
2022-11-13T06:20:15.252Z,99505.27
2022-11-13T06:23:01.839Z,99508.35
2022-11-13T06:25:48.648Z,99509.05
2022-11-13T06:28:35.202Z,99509.41
2022-11-13T06:31:23.677Z,99507.10
2022-11-13T06:34:10.317Z,99508.56
2022-11-13T06:36:57.183Z,99506.61
2022-11-13T06:39:43.741Z,99504.36
2022-11-13T06:42:30.563Z,99502.44
2022-11-13T06:45:17.168Z,99499.83
2022-11-13T06:48:04.290Z,99498.20
2022-11-13T06:50:51.548Z,99500.07
2022-11-13T06:53:38.526Z,99504.11
2022-11-13T06:56:25.299Z,99497.84
2022-11-13T06:59:12.230Z,99497.48
2022-11-13T07:01:58.685Z,99495.32
2022-11-13T07:04:45.069Z,99493.21
2022-11-13T07:07:31.956Z,99490.64
2022-11-13T07:10:18.781Z,99493.26
2022-11-13T07:13:05.620Z,99492.81
2022-11-13T07:15:52.764Z,99494.01
2022-11-13T07:18:39.699Z,99493.29
2022-11-13T07:21:26.212Z,99484.77
2022-11-13T07:24:16.880Z,99487.27
2022-11-13T07:27:03.769Z,99486.06
2022-11-13T07:29:50.608Z,99490.41
2022-11-13T07:32:37.745Z,99495.86
2022-11-13T07:35:24.546Z,99489.77
2022-11-13T07:38:11.425Z,99487.98
2022-11-13T07:40:59.107Z,99489.96
2022-11-13T07:43:46.112Z,99492.06
2022-11-13T07:46:32.445Z,99491.39
2022-11-13T07:49:18.913Z,99489.52
2022-11-13T07:52:05.673Z,99490.47
2022-11-13T07:54:52.446Z,99491.77
2022-11-13T07:57:39.034Z,99487.74
2022-11-13T08:00:26.727Z,99482.25
2022-11-13T08:03:14.609Z,99483.08
2022-11-13T08:06:02.918Z,99483.44
2022-11-13T08:08:50.267Z,99485.27
2022-11-13T08:11:37.080Z,99479.46
2022-11-13T08:14:23.495Z,99475.50
2022-11-13T08:17:10.106Z,99472.95
2022-11-13T08:19:56.986Z,99475.35
2022-11-13T08:22:43.849Z,99474.16
2022-11-13T08:25:31.376Z,99470.75
2022-11-13T08:28:17.546Z,99471.37
2022-11-13T08:31:04.636Z,99475.16
2022-11-13T08:33:50.943Z,99468.25
2022-11-13T08:36:37.743Z,99467.97
2022-11-13T08:39:24.637Z,99468.23
2022-11-13T08:42:11.188Z,99471.05
2022-11-13T08:44:57.909Z,99473.00
2022-11-13T08:47:44.468Z,99472.33
2022-11-13T08:50:31.918Z,99473.64
2022-11-13T08:53:18.701Z,99470.92
2022-11-13T08:56:05.225Z,99467.98
2022-11-13T08:58:52.090Z,99462.08
2022-11-13T09:01:39.120Z,99460.64
2022-11-13T09:04:26.759Z,99461.16
2022-11-13T09:07:14.037Z,99456.94
2022-11-13T09:10:00.580Z,99455.80
2022-11-13T09:12:47.254Z,99450.80
2022-11-13T09:15:34.024Z,99454.10
2022-11-13T09:18:20.808Z,99450.86
2022-11-13T09:21:07.791Z,99450.82
2022-11-13T09:23:54.633Z,99443.63
2022-11-13T09:26:41.213Z,99438.33
2022-11-13T09:29:28.891Z,99432.73
2022-11-13T09:32:16.248Z,99430.73
2022-11-13T09:35:02.758Z,99431.01
2022-11-13T09:37:52.062Z,99427.79
2022-11-13T09:40:41.733Z,99426.67
2022-11-13T09:43:34.931Z,99423.16
2022-11-13T09:46:33.580Z,99423.08
2022-11-13T09:49:27.476Z,99419.54
2022-11-13T09:52:19.372Z,99418.84
2022-11-13T09:55:07.077Z,99413.41
2022-11-13T09:57:53.825Z,99412.30
2022-11-13T10:00:40.529Z,99408.61
2022-11-13T10:03:59.958Z,99404.95
2022-11-13T10:06:48.098Z,99403.80
2022-11-13T10:09:40.982Z,99399.05
2022-11-13T10:12:29.492Z,99394.98
2022-11-13T10:15:17.499Z,99392.41
2022-11-13T10:18:12.186Z,99390.73
2022-11-13T10:21:09.466Z,99387.38
2022-11-13T10:23:57.339Z,99383.14
2022-11-13T10:26:44.287Z,99376.02
2022-11-13T10:29:31.160Z,99373.23
2022-11-13T10:32:23.270Z,99373.81
2022-11-13T10:35:19.722Z,99370.45
2022-11-13T10:38:16.200Z,99372.71
2022-11-13T10:41:08.127Z,99375.13
2022-11-13T10:43:59.767Z,99368.57
2022-11-13T10:46:46.728Z,99367.27
2022-11-13T10:49:33.469Z,99363.19
2022-11-13T10:52:29.992Z,99366.65
2022-11-13T10:55:16.422Z,99360.88
2022-11-13T10:58:03.936Z,99356.30
2022-11-13T11:00:52.623Z,99352.95
2022-11-13T11:03:48.407Z,99346.10
2022-11-13T11:07:12.732Z,99342.66
2022-11-13T11:09:44.254Z,99334.20
2022-11-13T11:12:31.456Z,99333.87
2022-11-13T11:15:21.350Z,99329.13
2022-11-13T11:18:19.937Z,99328.93
2022-11-13T11:21:10.200Z,99324.55
2022-11-13T11:24:01.472Z,99323.15
2022-11-13T11:26:56.442Z,99321.08
2022-11-13T11:29:49.165Z,99315.64
2022-11-13T11:32:40.332Z,99308.46
2022-11-13T11:35:42.162Z,99302.80
2022-11-13T11:38:33.377Z,99299.04
2022-11-13T11:41:23.437Z,99298.74
2022-11-13T11:44:09.900Z,99298.93
2022-11-13T11:46:56.365Z,99297.69
2022-11-13T11:49:44.123Z,99298.08
2022-11-13T11:52:51.115Z,99295.77
2022-11-13T11:55:55.989Z,99295.92
2022-11-13T11:58:48.352Z,99292.84
2022-11-13T12:01:35.058Z,99288.02
2022-11-13T12:04:21.869Z,99289.77
2022-11-13T12:07:33.466Z,99292.17
2022-11-13T12:10:32.632Z,99290.45
2022-11-13T12:13:32.226Z,99285.90
2022-11-13T12:16:37.825Z,99282.45
2022-11-13T12:19:50.854Z,99277.52
2022-11-13T12:22:39.674Z,99280.20
2022-11-13T12:25:46.071Z,99274.88
2022-11-13T12:28:35.936Z,99273.54
2022-11-13T12:31:30.952Z,99275.38
2022-11-13T12:34:20.585Z,99271.82
2022-11-13T12:37:11.643Z,99271.88
2022-11-13T12:40:01.522Z,99266.37
2022-11-13T12:42:54.436Z,99267.07
2022-11-13T12:45:48.697Z,99263.17
2022-11-13T12:48:36.897Z,99263.96
2022-11-13T12:51:23.606Z,99260.36
2022-11-13T12:54:11.101Z,99256.96
2022-11-13T12:57:09.307Z,99257.48
2022-11-13T12:59:57.149Z,99255.78
2022-11-13T13:02:57.979Z,99253.79
2022-11-13T13:05:59.829Z,99249.30
2022-11-13T13:08:46.754Z,99246.04
2022-11-13T13:11:36.003Z,99249.52
2022-11-13T13:14:22.522Z,99248.34
2022-11-13T13:17:15.338Z,99238.48
2022-11-13T13:20:05.529Z,99238.70
2022-11-13T13:22:56.701Z,99237.34
2022-11-13T13:25:42.981Z,99236.77
2022-11-13T13:28:31.267Z,99234.01
2022-11-13T13:31:33.573Z,99234.84
2022-11-13T13:34:38.829Z,99237.42
2022-11-13T13:37:40.800Z,99233.84
2022-11-13T13:40:35.387Z,99229.83
2022-11-13T13:43:34.575Z,99226.14
2022-11-13T13:46:23.118Z,99222.86
2022-11-13T13:49:15.094Z,99224.73
2022-11-13T13:52:02.491Z,99226.34
2022-11-13T13:54:49.204Z,99226.27
2022-11-13T13:57:40.533Z,99226.28
2022-11-13T14:00:27.220Z,99224.16
2022-11-13T14:03:21.156Z,99221.84
2022-11-13T14:06:08.827Z,99214.23
2022-11-13T14:08:55.447Z,99210.38
2022-11-13T14:11:42.485Z,99210.91
2022-11-13T14:14:29.205Z,99211.16
2022-11-13T14:17:22.517Z,99205.95
2022-11-13T14:20:12.195Z,99208.67
2022-11-13T14:22:59.281Z,99210.26
2022-11-13T14:25:47.761Z,99208.14
2022-11-13T14:28:35.872Z,99202.84
2022-11-13T14:31:30.406Z,99198.38
2022-11-13T14:34:20.168Z,99195.96
2022-11-13T14:37:13.237Z,99193.77
2022-11-13T14:40:05.317Z,99192.11
2022-11-13T14:42:58.027Z,99185.92
2022-11-13T14:45:53.118Z,99182.88
2022-11-13T14:48:39.612Z,99187.46
2022-11-13T14:51:27.657Z,99190.45
2022-11-13T14:54:33.766Z,99189.50
2022-11-13T14:57:29.232Z,99190.03
2022-11-13T15:00:20.415Z,99185.83
2022-11-13T15:03:07.033Z,99183.29
2022-11-13T15:05:53.895Z,99183.44
2022-11-13T15:08:40.871Z,99184.07
2022-11-13T15:11:27.677Z,99188.28
2022-11-13T15:14:15.817Z,99186.66
2022-11-13T15:17:02.610Z,99184.09
2022-11-13T15:19:51.663Z,99181.84
2022-11-13T15:22:39.627Z,99180.13
2022-11-13T15:25:26.849Z,99180.39
2022-11-13T15:28:13.642Z,99179.29
2022-11-13T15:30:59.871Z,99179.13
2022-11-13T15:33:46.922Z,99181.96
2022-11-13T15:36:33.575Z,99182.84
2022-11-13T15:39:23.678Z,99185.14
2022-11-13T15:42:15.174Z,99183.82
2022-11-13T15:45:02.326Z,99182.14
2022-11-13T15:47:49.785Z,99181.38
2022-11-13T15:50:36.387Z,99184.95
2022-11-13T15:53:23.041Z,99186.09
2022-11-13T15:56:10.252Z,99185.80
2022-11-13T15:58:57.275Z,99182.09
2022-11-13T16:01:44.277Z,99185.15
2022-11-13T16:04:54.623Z,99188.41
2022-11-13T16:07:41.250Z,99187.13
2022-11-13T16:10:30.175Z,99189.27
2022-11-13T16:13:16.809Z,99191.88
2022-11-13T16:16:03.213Z,99191.23
2022-11-13T16:18:58.794Z,99195.31
2022-11-13T16:21:46.334Z,99195.54
2022-11-13T16:24:33.574Z,99192.47
2022-11-13T16:27:31.545Z,99197.64
2022-11-13T16:30:20.447Z,99196.29
2022-11-13T16:33:09.441Z,99194.05
2022-11-13T16:35:56.580Z,99192.89
2022-11-13T16:38:43.039Z,99190.80
2022-11-13T16:41:31.226Z,99191.80
2022-11-13T16:44:18.035Z,99193.11
2022-11-13T16:47:05.838Z,99195.96
2022-11-13T16:49:52.885Z,99194.36
2022-11-13T16:52:39.699Z,99194.85
2022-11-13T16:55:26.827Z,99192.88
2022-11-13T16:58:14.543Z,99191.55
2022-11-13T17:01:01.268Z,99192.27
2022-11-13T17:03:48.162Z,99190.29
2022-11-13T17:06:36.475Z,99192.42
2022-11-13T17:09:23.005Z,99191.52
2022-11-13T17:12:12.688Z,99192.30
2022-11-13T17:14:59.914Z,99187.86
2022-11-13T17:17:47.495Z,99188.21
2022-11-13T17:20:35.910Z,99191.48
2022-11-13T17:23:22.913Z,99188.80
2022-11-13T17:26:09.701Z,99186.83
2022-11-13T17:28:56.202Z,99187.20
2022-11-13T17:31:42.688Z,99183.14
2022-11-13T17:34:29.554Z,99179.24
2022-11-13T17:37:15.979Z,99179.86
2022-11-13T17:40:02.519Z,99175.02
2022-11-13T17:42:49.742Z,99173.00
2022-11-13T17:45:37.215Z,99178.58
2022-11-13T17:48:24.049Z,99174.71
2022-11-13T17:51:12.319Z,99171.61
2022-11-13T17:53:59.657Z,99171.61
2022-11-13T17:56:47.473Z,99167.72
2022-11-13T17:59:34.487Z,99167.20
2022-11-13T18:02:21.299Z,99166.58
2022-11-13T18:05:10.053Z,99165.70
2022-11-13T18:07:56.946Z,99161.38
2022-11-13T18:10:43.593Z,99160.81
2022-11-13T18:13:31.050Z,99164.13
2022-11-13T18:16:23.234Z,99165.57
2022-11-13T18:19:10.244Z,99164.48
2022-11-13T18:21:57.230Z,99165.30
2022-11-13T18:24:44.002Z,99162.52
2022-11-13T18:27:31.457Z,99162.16
2022-11-13T18:30:18.474Z,99161.48
2022-11-13T18:33:06.346Z,99160.98
2022-11-13T18:35:55.921Z,99155.36
2022-11-13T18:38:43.550Z,99158.88
2022-11-13T18:41:30.867Z,99153.67
2022-11-13T18:44:17.814Z,99151.60
2022-11-13T18:47:04.351Z,99144.57
2022-11-13T18:49:51.192Z,99148.29
2022-11-13T18:52:37.470Z,99148.12
2022-11-13T18:55:23.819Z,99145.15
2022-11-13T18:58:10.499Z,99144.80
2022-11-13T19:00:57.409Z,99145.95
2022-11-13T19:04:08.243Z,99146.44
2022-11-13T19:06:51.885Z,99143.64
2022-11-13T19:09:44.976Z,99141.15
2022-11-13T19:12:31.475Z,99138.84
2022-11-13T19:15:18.001Z,99137.65
2022-11-13T19:18:04.836Z,99138.54
2022-11-13T19:20:51.392Z,99139.27
2022-11-13T19:23:38.383Z,99136.59
2022-11-13T19:26:25.060Z,99132.73
2022-11-13T19:29:12.091Z,99135.29
2022-11-13T19:31:58.538Z,99132.74
2022-11-13T19:34:46.570Z,99131.86
2022-11-13T19:37:33.273Z,99132.33
2022-11-13T19:40:19.746Z,99132.70
2022-11-13T19:43:06.381Z,99137.67
2022-11-13T19:45:53.399Z,99134.40
2022-11-13T19:48:42.358Z,99131.91
2022-11-13T19:51:29.166Z,99130.65
2022-11-13T19:54:16.723Z,99132.59
2022-11-13T19:57:03.498Z,99128.03
2022-11-13T19:59:50.070Z,99131.80
2022-11-13T20:02:36.609Z,99129.48
2022-11-13T20:05:23.520Z,99128.55
2022-11-13T20:08:11.683Z,99130.79
2022-11-13T20:11:05.432Z,99134.58
2022-11-13T20:13:52.557Z,99133.40
2022-11-13T20:16:39.123Z,99131.83
2022-11-13T20:19:26.067Z,99129.89
2022-11-13T20:22:12.672Z,99125.50
2022-11-13T20:24:59.161Z,99126.50
2022-11-13T20:27:47.478Z,99125.00
2022-11-13T20:30:34.531Z,99129.91
2022-11-13T20:33:22.828Z,99127.81
2022-11-13T20:36:10.120Z,99123.20
2022-11-13T20:38:57.242Z,99124.39
2022-11-13T20:41:43.980Z,99122.88
2022-11-13T20:44:30.856Z,99116.84
2022-11-13T20:47:18.142Z,99118.59
2022-11-13T20:50:05.342Z,99118.39
2022-11-13T20:52:51.674Z,99113.94
2022-11-13T20:55:38.909Z,99111.40
2022-11-13T20:58:25.421Z,99110.28
2022-11-13T21:01:13.443Z,99106.59
2022-11-13T21:04:00.346Z,99109.13
2022-11-13T21:06:47.697Z,99103.33
2022-11-13T21:09:34.667Z,99095.52
2022-11-13T21:12:20.888Z,99093.38
2022-11-13T21:15:07.700Z,99096.55
2022-11-13T21:17:54.494Z,99101.86
2022-11-13T21:20:41.097Z,99103.48
2022-11-13T21:23:29.366Z,99102.50
2022-11-13T21:26:15.909Z,99099.31
2022-11-13T21:29:02.233Z,99101.58
2022-11-13T21:31:48.960Z,99099.99
2022-11-13T21:34:35.353Z,99099.19
2022-11-13T21:37:21.947Z,99097.80
2022-11-13T21:40:09.996Z,99099.96
2022-11-13T21:42:57.014Z,99097.42
2022-11-13T21:45:44.127Z,99100.62
2022-11-13T21:48:33.378Z,99100.59
2022-11-13T21:51:20.408Z,99102.79
2022-11-13T21:54:07.830Z,99101.03
2022-11-13T21:56:54.741Z,99096.95
2022-11-13T21:59:41.553Z,99096.98
2022-11-13T22:02:28.382Z,99099.89
2022-11-13T22:05:15.079Z,99101.80
2022-11-13T22:08:01.427Z,99101.95
2022-11-13T22:10:48.178Z,99099.22
2022-11-13T22:13:34.676Z,99094.61
2022-11-13T22:16:22.921Z,99095.78
2022-11-13T22:19:13.723Z,99096.11
2022-11-13T22:22:00.130Z,99100.58
2022-11-13T22:24:46.615Z,99097.95
2022-11-13T22:27:33.434Z,99097.65
2022-11-13T22:30:20.246Z,99097.70
2022-11-13T22:33:07.670Z,99092.19
2022-11-13T22:36:00.006Z,99090.40
2022-11-13T22:38:47.327Z,99087.98
2022-11-13T22:41:35.558Z,99088.23
2022-11-13T22:44:22.179Z,99091.09
2022-11-13T22:47:08.954Z,99093.77
2022-11-13T22:49:55.794Z,99091.73
2022-11-13T22:52:42.494Z,99080.89
2022-11-13T22:55:29.127Z,99076.27
2022-11-13T22:58:15.769Z,99068.16
2022-11-13T23:01:15.369Z,99066.19
2022-11-13T23:04:04.428Z,99070.71
2022-11-13T23:06:51.255Z,99077.84
2022-11-13T23:09:38.113Z,99081.09
2022-11-13T23:12:24.789Z,99079.70
2022-11-13T23:15:11.384Z,99071.84
2022-11-13T23:17:57.970Z,99064.77
2022-11-13T23:20:44.775Z,99061.94
2022-11-13T23:23:32.161Z,99052.70
2022-11-13T23:26:19.172Z,99055.44
2022-11-13T23:29:05.876Z,99055.58
2022-11-13T23:31:52.889Z,99057.09
2022-11-13T23:34:58.563Z,99054.45
2022-11-13T23:37:46.845Z,99053.80
2022-11-13T23:40:33.596Z,99054.43
2022-11-13T23:43:20.812Z,99054.11
2022-11-13T23:46:07.929Z,99054.89
2022-11-13T23:48:55.314Z,99055.51
2022-11-13T23:51:41.993Z,99058.09
2022-11-13T23:54:28.560Z,99062.07
2022-11-13T23:57:15.276Z,99057.31
